Time;durP1;ratioP1;P1;durP2;ratioP2;P2;SDS_P1;SDS_P2;PMS_P1;PMS_P2;Temp;Humidity;BMP_temperature;BMP_pressure;BME280_temperature;BME280_humidity;BME280_pressure;Samples;Min_cycle;Max_cycle;Signal;HPM_P1;HPM_P2
2021/06/09 00:01:12;;;;;;;6.90;4.97;;;;;;;17.19;99.42;100073.84;1740978;81;20949;-47
2021/06/09 00:03:38;;;;;;;6.12;4.75;;;;;;;17.20;99.52;100069.30;1745736;80;20966;-49
2021/06/09 00:06:05;;;;;;;5.90;4.42;;;;;;;17.20;99.35;100073.34;1737771;80;20945;-54
2021/06/09 00:08:32;;;;;;;7.17;5.60;;;;;;;17.18;99.18;100072.62;1741430;81;20949;-54
2021/06/09 00:10:59;;;;;;;6.90;5.40;;;;;;;17.17;99.13;100072.28;1745990;80;21000;-51
2021/06/09 00:13:29;;;;;;;5.25;4.62;;;;;;;17.12;99.15;100072.70;1738041;81;20941;-52
2021/06/09 00:15:59;;;;;;;5.87;4.95;;;;;;;17.09;99.23;100073.00;1740681;80;21012;-47
2021/06/09 00:18:25;;;;;;;6.25;5.50;;;;;;;17.03;99.27;100077.11;1715865;82;20937;-54
2021/06/09 00:20:53;;;;;;;6.03;5.33;;;;;;;16.96;99.57;100077.31;1744098;80;21022;-56
2021/06/09 00:23:25;;;;;;;5.70;5.17;;;;;;;16.94;99.93;100068.52;1742967;81;21008;-50
2021/06/09 00:25:50;;;;;;;7.03;4.65;;;;;;;16.95;100.00;100067.52;1709852;82;21000;-45
2021/06/09 00:28:17;;;;;;;5.70;5.03;;;;;;;16.98;100.00;100067.73;1751969;80;20969;-49
2021/06/09 00:30:43;;;;;;;5.10;4.62;;;;;;;16.99;100.00;100064.91;1754447;80;21017;-51
2021/06/09 00:33:10;;;;;;;5.90;5.15;;;;;;;17.02;100.00;100063.27;1751854;81;21031;-51
2021/06/09 00:35:36;;;;;;;5.53;5.03;;;;;;;17.03;99.66;100063.64;1746214;80;20971;-48
2021/06/09 00:38:04;;;;;;;5.67;5.00;;;;;;;17.03;99.40;100061.42;1758525;80;20957;-49
2021/06/09 00:40:32;;;;;;;7.00;5.62;;;;;;;17.03;99.18;100062.30;1756709;80;20964;-46
2021/06/09 00:43:14;;;;;;;5.28;4.75;;;;;;;17.04;98.92;100063.14;1746804;80;21009;-48
2021/06/09 00:45:56;;;;;;;6.53;4.85;;;;;;;17.02;98.68;100056.54;1745592;80;20980;-49
2021/06/09 00:48:26;;;;;;;5.70;5.10;;;;;;;17.01;98.67;100058.02;1753198;80;20951;-49
2021/06/09 00:50:53;;;;;;;6.53;5.28;;;;;;;16.99;98.65;100052.79;1753106;80;21742;-49
2021/06/09 00:53:33;;;;;;;5.83;4.55;;;;;;;16.98;98.56;100057.80;1742744;81;20936;-48
2021/06/09 00:55:48;;;;;;;5.42;4.92;;;;;;;16.98;98.45;100057.80;1742949;81;21547;-49
2021/06/09 00:58:15;;;;;;;5.97;5.42;;;;;;;16.97;98.39;100057.45;1746399;81;20992;-47
2021/06/09 01:00:42;;;;;;;6.50;5.70;;;;;;;16.97;98.48;100053.92;1751911;80;20940;-47
2021/06/09 01:03:08;;;;;;;8.05;6.37;;;;;;;16.97;98.38;100059.31;1743517;81;20956;-48
2021/06/09 01:05:36;;;;;;;6.80;5.53;;;;;;;16.95;98.18;100058.09;1750107;80;20955;-46
2021/06/09 01:08:03;;;;;;;6.10;5.50;;;;;;;16.93;97.95;100052.48;1751180;81;20984;-45
2021/06/09 01:10:30;;;;;;;5.83;5.20;;;;;;;16.91;97.85;100056.69;1749692;80;21027;-48
2021/06/09 01:12:57;;;;;;;5.95;4.28;;;;;;;16.91;97.56;100055.34;1752496;81;20952;-45
2021/06/09 01:15:25;;;;;;;6.12;4.80;;;;;;;16.92;97.10;100050.80;1749063;80;21031;-48
2021/06/09 01:17:52;;;;;;;4.72;4.28;;;;;;;16.90;96.70;100046.05;1751723;81;21374;-46
2021/06/09 01:20:19;;;;;;;8.30;5.55;;;;;;;16.89;96.27;100057.31;1755085;80;21015;-45
2021/06/09 01:22:46;;;;;;;7.12;4.92;;;;;;;16.87;95.95;100055.25;1744557;81;20971;-49
2021/06/09 01:25:13;;;;;;;5.87;5.00;;;;;;;16.84;95.77;100055.05;1749873;80;20968;-48
2021/06/09 01:27:39;;;;;;;5.95;4.55;;;;;;;16.83;95.98;100053.35;1758723;81;20974;-47
2021/06/09 01:30:11;;;;;;;6.17;5.30;;;;;;;16.82;96.08;100050.79;1754359;81;21014;-48
2021/06/09 01:32:38;;;;;;;5.87;5.37;;;;;;;16.78;95.94;100044.84;1763523;81;21505;-47
2021/06/09 01:35:06;;;;;;;5.83;5.08;;;;;;;16.76;95.80;100048.14;1750899;80;20955;-47
2021/06/09 01:37:32;;;;;;;6.15;5.58;;;;;;;16.75;95.43;100050.95;1757369;80;20943;-47
2021/06/09 01:39:59;;;;;;;5.40;5.00;;;;;;;16.71;94.93;100051.73;1758325;80;21030;-46
2021/06/09 01:42:29;;;;;;;6.05;5.45;;;;;;;16.70;94.48;100058.59;1761524;80;20969;-49
2021/06/09 01:44:56;;;;;;;6.97;5.42;;;;;;;16.68;94.10;100056.53;1751781;80;21030;-46
2021/06/09 01:47:23;;;;;;;5.80;5.30;;;;;;;16.65;93.90;100059.85;1750645;80;21038;-46
2021/06/09 01:49:49;;;;;;;6.50;5.65;;;;;;;16.63;93.66;100060.52;1750297;80;21475;-45
2021/06/09 01:52:20;;;;;;;6.28;5.08;;;;;;;16.60;93.57;100062.11;1757089;80;20916;-45
2021/06/09 01:54:47;;;;;;;5.95;5.35;;;;;;;16.59;93.52;100060.92;1733833;82;21488;-45
2021/06/09 01:57:15;;;;;;;5.60;4.87;;;;;;;16.56;93.50;100060.70;1697025;83;21003;-45
2021/06/09 01:59:42;;;;;;;5.55;5.00;;;;;;;16.55;93.60;100064.37;1701044;83;21507;-46
2021/06/09 02:02:11;;;;;;;6.22;5.72;;;;;;;16.54;93.53;100065.88;1693966;83;20959;-47
2021/06/09 02:04:40;;;;;;;6.35;5.75;;;;;;;16.51;93.63;100067.00;1699433;83;20996;-45
2021/06/09 02:07:07;;;;;;;7.00;6.30;;;;;;;16.51;93.97;100069.69;1700059;83;21011;-44
2021/06/09 02:09:36;;;;;;;6.30;5.72;;;;;;;16.51;94.30;100071.53;1700907;83;21035;-46
2021/06/09 02:12:04;;;;;;;6.72;5.95;;;;;;;16.51;94.48;100075.57;1698649;83;20940;-45
2021/06/09 02:14:30;;;;;;;7.03;6.35;;;;;;;16.50;94.72;100076.04;1703513;83;21437;-48
2021/06/09 02:16:57;;;;;;;7.00;6.30;;;;;;;16.48;94.88;100078.52;1706840;83;21011;-45
2021/06/09 02:19:25;;;;;;;6.37;5.78;;;;;;;16.46;94.98;100077.33;1705131;83;20988;-46
2021/06/09 02:21:52;;;;;;;6.00;5.40;;;;;;;16.44;94.89;100077.45;1700719;83;20967;-47
2021/06/09 02:24:18;;;;;;;6.75;6.15;;;;;;;16.44;94.79;100083.33;1703529;83;21500;-46
2021/06/09 02:26:46;;;;;;;6.05;5.45;;;;;;;16.42;94.81;100075.38;1676766;83;20961;-46
2021/06/09 02:29:13;;;;;;;5.55;5.05;;;;;;;16.40;94.85;100070.66;1655727;85;20955;-46
2021/06/09 02:31:47;;;;;;;5.92;5.42;;;;;;;16.38;94.84;100073.97;1656950;85;20975;-46
2021/06/09 02:34:20;;;;;;;9.45;6.22;;;;;;;16.37;95.00;100076.79;1670622;84;20964;-48
2021/06/09 02:36:53;;;;;;;5.70;5.20;;;;;;;16.35;95.25;100078.25;1675365;84;21031;-45
2021/06/09 02:39:20;;;;;;;5.70;4.85;;;;;;;16.34;95.63;100071.69;1677638;84;20985;-45
2021/06/09 02:41:48;;;;;;;6.75;5.45;;;;;;;16.30;96.25;100076.97;1672232;84;20998;-45
2021/06/09 02:44:14;;;;;;;6.83;6.12;;;;;;;16.27;96.83;100078.59;1667198;84;20957;-44
2021/06/09 02:46:52;;;;;;;5.62;5.10;;;;;;;16.26;97.32;100081.78;1663237;84;21459;-43
2021/06/09 02:49:21;;;;;;;7.15;6.45;;;;;;;16.26;97.84;100078.25;1657370;85;20952;-46
2021/06/09 02:52:09;;;;;;;7.80;5.78;;;;;;;16.25;98.53;100080.06;1659556;84;21572;-46
2021/06/09 02:54:57;;;;;;;12.13;10.82;;;;;;;16.24;99.24;100079.72;1660128;86;21345;-45
2021/06/09 02:58:14;;;;;;;8.78;7.35;;;;;;;16.25;99.88;100081.91;1682343;83;21031;-45
2021/06/09 03:00:59;;;;;;;7.60;6.62;;;;;;;16.26;100.00;100080.94;1660311;85;21009;-46
2021/06/09 03:03:46;;;;;;;5.50;5.00;;;;;;;16.30;100.00;100086.39;1659464;86;20973;-46
2021/06/09 03:06:28;;;;;;;5.22;4.72;;;;;;;16.34;100.00;100085.98;1659122;86;21054;-45
2021/06/09 03:09:05;;;;;;;5.90;5.30;;;;;;;16.39;100.00;100090.46;1656858;86;20979;-45
2021/06/09 03:11:53;;;;;;;6.10;5.03;;;;;;;16.42;100.00;100083.45;1559889;90;21636;-45
2021/06/09 03:17:30;;;;;;;5.55;4.95;;;;;;;16.49;100.00;100081.08;1632032;86;21060;-47
2021/06/09 03:20:13;;;;;;;5.67;5.20;;;;;;;16.53;100.00;100087.90;1637037;86;20961;-47
2021/06/09 03:22:48;;;;;;;7.22;4.92;;;;;;;16.55;100.00;100080.52;1639555;86;20992;-47
2021/06/09 03:25:25;;;;;;;5.17;4.62;;;;;;;16.59;100.00;100085.99;1639322;86;21020;-47
2021/06/09 03:27:58;;;;;;;5.58;5.05;;;;;;;16.63;100.00;100083.39;1645059;85;21008;-47
2021/06/09 03:30:28;;;;;;;6.08;5.35;;;;;;;16.69;100.00;100089.21;1606037;88;21494;-48
2021/06/09 03:33:01;;;;;;;7.60;5.40;;;;;;;16.72;100.00;100090.27;1604784;88;21028;-48
2021/06/09 03:35:47;;;;;;;5.37;4.87;;;;;;;16.74;100.00;100085.61;1607136;88;21048;-48
2021/06/09 03:38:19;;;;;;;4.97;4.45;;;;;;;16.77;100.00;100088.02;1604573;88;21044;-52
2021/06/09 03:40:46;;;;;;;7.37;4.92;;;;;;;16.78;100.00;100091.08;1607086;88;21094;-48
2021/06/09 03:43:13;;;;;;;5.35;4.85;;;;;;;16.80;100.00;100090.45;1587402;88;20989;-53
2021/06/09 03:45:46;;;;;;;6.08;4.78;;;;;;;16.85;100.00;100092.23;1596196;88;20988;-47
2021/06/09 03:48:13;;;;;;;5.40;4.90;;;;;;;16.90;100.00;100093.17;1621447;83;21498;-48
2021/06/09 03:50:40;;;;;;;6.00;5.00;;;;;;;16.94;100.00;100094.60;1726504;81;20996;-50
2021/06/09 03:53:06;;;;;;;5.62;5.10;;;;;;;16.98;100.00;100102.73;1724685;82;20976;-46
2021/06/09 03:55:36;;;;;;;5.05;4.58;;;;;;;17.00;100.00;100098.06;1728311;82;21321;-46
2021/06/09 03:58:03;;;;;;;8.83;4.83;;;;;;;17.06;100.00;100106.95;1718985;82;20976;-47
2021/06/09 04:00:29;;;;;;;4.97;4.58;;;;;;;17.09;100.00;100106.16;1714614;82;21283;-47
2021/06/09 04:02:56;;;;;;;7.35;5.33;;;;;;;17.13;100.00;100105.88;1728351;82;21014;-49
2021/06/09 04:05:24;;;;;;;6.95;4.75;;;;;;;17.18;100.00;100107.14;1735319;81;21483;-48
2021/06/09 04:07:51;;;;;;;6.58;4.97;;;;;;;17.25;100.00;100106.09;1722934;82;20994;-49
2021/06/09 04:10:18;;;;;;;5.22;4.47;;;;;;;17.31;100.00;100112.25;1728524;81;21075;-48
2021/06/09 04:12:45;;;;;;;6.22;4.97;;;;;;;17.35;100.00;100111.48;1708562;81;20944;-50
2021/06/09 04:15:13;;;;;;;6.50;5.75;;;;;;;17.40;100.00;100115.45;1692911;83;20931;-53
2021/06/09 04:17:40;;;;;;;6.28;4.97;;;;;;;17.47;100.00;100114.39;1727752;81;21021;-49
2021/06/09 04:20:08;;;;;;;5.85;5.03;;;;;;;17.52;100.00;100117.52;1709446;81;21451;-49
2021/06/09 04:22:35;;;;;;;5.25;4.75;;;;;;;17.56;100.00;100110.82;1727718;81;21338;-48
2021/06/09 04:25:02;;;;;;;7.22;5.30;;;;;;;17.59;100.00;100113.72;1699959;83;20947;-53
2021/06/09 04:27:35;;;;;;;6.00;5.42;;;;;;;17.62;100.00;100115.66;1736710;80;20999;-50
2021/06/09 04:30:03;;;;;;;6.33;5.50;;;;;;;17.65;100.00;100116.70;1743673;81;20976;-51
2021/06/09 04:32:55;;;;;;;7.15;5.70;;;;;;;17.69;100.00;100111.89;1742929;80;20976;-58
2021/06/09 04:35:38;;;;;;;8.03;4.70;;;;;;;17.73;100.00;100113.28;1732809;80;20968;-48
2021/06/09 04:38:05;;;;;;;6.95;5.12;;;;;;;17.80;100.00;100110.91;1748121;80;20940;-48
2021/06/09 04:40:32;;;;;;;4.75;4.35;;;;;;;17.85;100.00;100114.02;1743787;80;20960;-48
2021/06/09 04:42:59;;;;;;;5.72;4.55;;;;;;;17.85;100.00;100108.63;1746615;81;20968;-50
2021/06/09 04:45:27;;;;;;;5.10;4.33;;;;;;;17.90;100.00;100110.38;1752702;81;21023;-52
2021/06/09 04:47:53;;;;;;;5.90;4.60;;;;;;;17.94;100.00;100105.91;1746112;81;21012;-53
2021/06/09 04:50:23;;;;;;;7.85;5.28;;;;;;;17.99;100.00;100104.59;1742199;81;21506;-51
2021/06/09 04:52:50;;;;;;;8.58;5.12;;;;;;;18.05;100.00;100106.73;1704443;83;20994;-54
2021/06/09 04:55:17;;;;;;;5.22;4.80;;;;;;;18.10;100.00;100109.84;1744336;81;21432;-44
2021/06/09 04:57:44;;;;;;;7.53;4.85;;;;;;;18.16;100.00;100108.73;1739192;81;20951;-52
2021/06/09 05:00:15;;;;;;;6.90;4.95;;;;;;;18.23;99.15;100108.16;1741059;80;20997;-55
2021/06/09 05:02:41;;;;;;;6.20;5.60;;;;;;;18.26;99.15;100107.84;1738059;81;20964;-54
2021/06/09 05:05:09;;;;;;;12.10;5.90;;;;;;;18.29;99.27;100104.84;1738349;81;20952;-50
2021/06/09 05:07:36;;;;;;;6.10;5.25;;;;;;;18.36;99.83;100108.66;1744314;80;21010;-53
2021/06/09 05:10:03;;;;;;;5.35;4.70;;;;;;;18.42;99.06;100113.48;1738031;81;20952;-53
2021/06/09 05:12:35;;;;;;;5.37;4.87;;;;;;;18.47;99.08;100107.12;1747223;80;21511;-45
2021/06/09 05:15:08;;;;;;;7.60;4.97;;;;;;;18.52;98.15;100109.36;1721711;81;20958;-49
2021/06/09 05:17:45;;;;;;;5.62;4.37;;;;;;;18.58;98.42;100109.62;1745151;81;21765;-56
2021/06/09 05:20:34;;;;;;;5.20;4.42;;;;;;;18.67;98.57;100108.36;1733714;81;20952;-57
2021/06/09 05:23:22;;;;;;;4.75;4.20;;;;;;;18.72;98.50;100106.05;1737743;81;21019;-53
2021/06/09 05:25:50;;;;;;;6.10;4.87;;;;;;;18.75;96.38;100104.42;1735714;80;21428;-52
2021/06/09 05:28:17;;;;;;;4.95;4.33;;;;;;;18.77;95.34;100107.36;1727559;80;21421;-54
2021/06/09 05:30:43;;;;;;;5.08;4.58;;;;;;;18.81;95.63;100107.38;1724874;81;20923;-48
2021/06/09 05:33:10;;;;;;;5.20;4.62;;;;;;;18.84;95.70;100100.83;1735462;81;20978;-47
2021/06/09 05:35:37;;;;;;;5.37;4.87;;;;;;;18.89;95.42;100103.08;1726247;81;21528;-53
2021/06/09 05:38:04;;;;;;;7.03;5.65;;;;;;;18.95;95.39;100105.15;1719837;81;20936;-41
2021/06/09 05:40:31;;;;;;;6.42;5.65;;;;;;;18.99;95.27;100108.75;1698901;80;20995;-44
2021/06/09 05:42:57;;;;;;;5.58;4.72;;;;;;;19.06;94.64;100106.80;1732554;81;20976;-49
2021/06/09 05:45:28;;;;;;;5.17;4.40;;;;;;;19.12;93.78;100104.31;1729499;80;20988;-50
2021/06/09 05:47:54;;;;;;;6.60;4.90;;;;;;;19.18;93.01;100103.72;1729790;80;20940;-47
2021/06/09 05:50:27;;;;;;;5.00;4.22;;;;;;;19.22;91.57;100107.79;1727019;80;21007;-49
2021/06/09 05:52:57;;;;;;;5.12;4.65;;;;;;;19.26;90.11;100102.95;1725881;80;20964;-47
2021/06/09 05:55:27;;;;;;;4.25;3.80;;;;;;;19.32;89.37;100102.31;1729088;80;20940;-48
2021/06/09 05:57:55;;;;;;;6.22;3.95;;;;;;;19.36;87.92;100111.81;1726010;80;20968;-43
2021/06/09 06:00:24;;;;;;;5.67;4.62;;;;;;;19.42;87.92;100111.69;1734568;80;20959;-51
2021/06/09 06:02:51;;;;;;;6.67;3.92;;;;;;;19.46;88.18;100111.23;1722297;80;20947;-44
2021/06/09 06:05:18;;;;;;;8.58;4.65;;;;;;;19.51;87.35;100106.72;1740005;81;20965;-45
2021/06/09 06:07:44;;;;;;;7.83;4.28;;;;;;;19.55;86.58;100104.53;1724487;81;20935;-46
2021/06/09 06:10:12;;;;;;;10.72;4.55;;;;;;;19.58;84.27;100107.79;1721622;80;21441;-50
2021/06/09 06:12:39;;;;;;;7.62;3.67;;;;;;;19.61;82.45;100103.41;1722777;81;21002;-49
2021/06/09 06:15:07;;;;;;;7.25;4.33;;;;;;;19.64;81.97;100105.80;1697826;82;20975;-45
2021/06/09 06:17:39;;;;;;;7.75;4.10;;;;;;;19.71;80.66;100108.77;1726986;80;20945;-45
2021/06/09 06:20:08;;;;;;;7.17;4.25;;;;;;;19.73;80.13;100105.88;1712268;81;20991;-46
2021/06/09 06:22:35;;;;;;;7.70;4.10;;;;;;;19.74;79.42;100104.38;1726992;80;20952;-46
2021/06/09 06:25:02;;;;;;;10.55;4.25;;;;;;;19.77;79.04;100105.41;1725414;80;20967;-49
2021/06/09 06:27:30;;;;;;;9.48;4.35;;;;;;;19.81;78.44;100108.16;1726288;80;21343;-45
2021/06/09 06:29:56;;;;;;;5.37;3.58;;;;;;;19.84;79.06;100106.48;1719402;82;20980;-42
2021/06/09 06:32:23;;;;;;;9.55;4.58;;;;;;;19.91;79.59;100108.06;1716390;82;22059;-43
2021/06/09 06:34:50;;;;;;;11.10;6.25;;;;;;;20.00;79.31;100104.89;1712974;82;20972;-43
2021/06/09 06:37:18;;;;;;;4.40;3.95;;;;;;;20.05;77.60;100105.26;1713634;82;21734;-42
2021/06/09 06:39:44;;;;;;;6.00;3.58;;;;;;;20.08;78.56;100110.34;1712668;82;20929;-43
2021/06/09 06:42:11;;;;;;;7.67;4.40;;;;;;;20.12;78.79;100110.38;1716359;82;20955;-43
2021/06/09 06:44:42;;;;;;;5.50;4.05;;;;;;;20.18;79.15;100104.83;1717185;82;21455;-43
2021/06/09 06:47:11;;;;;;;6.53;3.47;;;;;;;20.23;80.29;100103.33;1716138;82;21479;-45
2021/06/09 06:49:38;;;;;;;8.18;4.42;;;;;;;20.30;78.99;100104.38;1713326;82;20981;-47
2021/06/09 06:52:05;;;;;;;5.85;3.12;;;;;;;20.36;77.97;100108.33;1715667;82;20941;-44
2021/06/09 06:54:45;;;;;;;6.33;4.60;;;;;;;20.40;76.82;100102.91;1714147;82;20984;-45
2021/06/09 06:57:41;;;;;;;6.75;4.50;;;;;;;20.44;76.81;100100.73;1707394;82;21107;-45
2021/06/09 07:00:13;;;;;;;5.33;3.45;;;;;;;20.48;77.03;100105.64;1714740;82;20996;-45
2021/06/09 07:02:40;;;;;;;5.80;3.70;;;;;;;20.53;76.69;100107.87;1715482;82;21037;-46
2021/06/09 07:05:08;;;;;;;7.62;3.62;;;;;;;20.61;77.71;100103.86;1718000;82;21015;-43
2021/06/09 07:07:34;;;;;;;4.92;3.33;;;;;;;20.66;76.71;100102.02;1715657;82;21016;-50
2021/06/09 07:10:06;;;;;;;6.17;3.98;;;;;;;20.71;76.63;100105.95;1717127;82;20957;-44
2021/06/09 07:12:35;;;;;;;6.70;3.12;;;;;;;20.75;75.43;100101.05;1713266;82;21059;-52
2021/06/09 07:15:20;;;;;;;6.05;4.50;;;;;;;20.81;76.32;100100.88;1715386;82;21464;-50
2021/06/09 07:17:52;;;;;;;5.90;4.20;;;;;;;20.87;75.38;100102.95;1719181;82;21351;-48
2021/06/09 07:20:24;;;;;;;5.95;3.92;;;;;;;20.91;73.20;100100.23;1719738;82;20956;-52
2021/06/09 07:22:53;;;;;;;4.72;3.25;;;;;;;20.94;71.96;100102.13;1714551;82;20956;-54
2021/06/09 07:25:20;;;;;;;5.75;4.12;;;;;;;20.98;72.02;100097.20;1717735;82;20995;-46
2021/06/09 07:27:52;;;;;;;5.22;3.75;;;;;;;21.03;71.80;100100.78;1721837;81;20992;-47
2021/06/09 07:30:23;;;;;;;4.47;3.45;;;;;;;21.07;71.08;100099.44;1732786;80;20961;-47
2021/06/09 07:32:52;;;;;;;4.95;3.70;;;;;;;21.11;71.40;100100.78;1720715;82;21452;-48
2021/06/09 07:39:13;;;;;;;6.28;3.65;;;;;;;21.17;70.37;100098.78;1609484;87;21088;-45
2021/06/09 07:41:41;;;;;;;5.87;3.52;;;;;;;21.20;69.44;100097.59;1610656;87;21028;-47
2021/06/09 07:44:08;;;;;;;4.42;3.10;;;;;;;21.21;69.39;100097.92;1609955;87;21519;-45
2021/06/09 07:46:35;;;;;;;4.50;3.50;;;;;;;21.24;70.15;100096.22;1612036;87;21441;-48
2021/06/09 07:49:06;;;;;;;3.45;2.90;;;;;;;21.28;69.24;100102.50;1612906;87;21009;-47
2021/06/09 07:51:32;;;;;;;4.22;2.85;;;;;;;21.34;69.82;100101.84;1613726;87;21478;-45
2021/06/09 07:54:00;;;;;;;6.15;4.17;;;;;;;21.41;68.37;100100.67;1608560;87;20988;-45
2021/06/09 07:56:36;;;;;;;5.42;3.40;;;;;;;21.43;67.23;100091.87;1611426;87;21106;-47
2021/06/09 07:59:06;;;;;;;7.00;3.42;;;;;;;21.46;68.18;100099.66;1609359;87;20977;-45
2021/06/09 08:01:34;;;;;;;3.20;2.83;;;;;;;21.49;68.98;100097.95;1610550;87;21092;-47
2021/06/09 08:04:01;;;;;;;2.90;2.60;;;;;;;21.57;69.19;100093.04;1609768;87;20988;-47
2021/06/09 08:06:28;;;;;;;7.03;3.25;;;;;;;21.63;66.80;100091.53;1606338;87;20960;-45
2021/06/09 08:08:55;;;;;;;5.10;3.60;;;;;;;21.69;66.28;100090.84;1611654;87;20996;-45
2021/06/09 08:11:21;;;;;;;6.00;3.30;;;;;;;21.76;65.14;100091.85;1611350;87;21443;-46
2021/06/09 08:13:48;;;;;;;6.15;3.22;;;;;;;21.80;64.57;100087.27;1610477;87;21036;-48
2021/06/09 08:16:18;;;;;;;5.47;4.08;;;;;;;21.86;64.47;100090.31;1654938;84;21036;-46
2021/06/09 08:18:46;;;;;;;5.17;2.60;;;;;;;21.92;65.58;100088.26;1664276;84;20981;-48
2021/06/09 08:21:20;;;;;;;5.37;3.30;;;;;;;21.98;65.37;100093.02;1663805;85;21072;-46
2021/06/09 08:23:49;;;;;;;8.95;3.37;;;;;;;22.02;64.17;100092.50;1598838;88;21071;-49
2021/06/09 08:26:17;;;;;;;4.72;2.92;;;;;;;22.07;63.50;100092.47;1621685;86;21613;-49
2021/06/09 08:28:46;;;;;;;6.65;3.55;;;;;;;22.11;64.00;100098.73;1666717;85;21742;-55
2021/06/09 08:31:18;;;;;;;4.97;4.47;;;;;;;22.15;63.89;100095.16;1683933;83;21688;-48
2021/06/09 08:33:45;;;;;;;4.42;3.08;;;;;;;;;;1631659;86;20983;-49
2021/06/09 08:36:13;;;;;;;4.00;3.58;;;;;;;22.24;62.72;100093.63;1688886;83;20972;-46
2021/06/09 08:38:41;;;;;;;5.60;3.80;;;;;;;22.25;61.98;100087.69;1690965;83;20999;-49
2021/06/09 08:41:09;;;;;;;5.75;3.90;;;;;;;22.25;61.57;100094.47;1688475;83;21026;-49
2021/06/09 08:43:37;;;;;;;5.60;4.15;;;;;;;22.26;61.90;100088.04;1689861;83;21003;-46
2021/06/09 08:46:06;;;;;;;4.35;3.77;;;;;;;22.31;62.56;100090.23;1690591;83;20991;-46
2021/06/09 08:48:38;;;;;;;4.70;3.77;;;;;;;22.36;63.82;100092.75;1690822;83;20995;-49
2021/06/09 08:51:07;;;;;;;5.25;3.62;;;;;;;22.42;62.22;100093.91;1688635;83;21035;-43
2021/06/09 08:53:38;;;;;;;3.90;2.75;;;;;;;22.45;62.57;100089.48;1655441;85;21481;-44
2021/06/09 08:56:05;;;;;;;5.25;3.20;;;;;;;22.49;62.00;100089.48;1680992;84;20976;-46
2021/06/09 08:58:37;;;;;;;5.00;3.70;;;;;;;22.57;60.78;100086.72;1744000;80;20960;-46
2021/06/09 09:01:10;;;;;;;4.37;3.37;;;;;;;22.63;61.63;100088.74;1748135;80;21523;-43
2021/06/09 09:03:37;;;;;;;5.83;4.37;;;;;;;22.68;59.28;100083.63;1747661;81;20953;-46
2021/06/09 09:06:05;;;;;;;3.60;3.12;;;;;;;22.74;59.65;100088.01;1747678;80;20975;-45
2021/06/09 09:08:32;;;;;;;6.40;4.58;;;;;;;22.78;58.32;100078.45;1754554;80;20999;-45
2021/06/09 09:10:59;;;;;;;4.17;3.20;;;;;;;22.81;59.28;100080.84;1746488;80;21011;-48
2021/06/09 09:13:25;;;;;;;5.10;3.77;;;;;;;22.85;58.80;100076.72;1749774;80;20920;-48
2021/06/09 09:15:55;;;;;;;4.62;3.25;;;;;;;22.89;57.50;100075.34;1748265;80;21440;-47
2021/06/09 09:18:23;;;;;;;5.65;2.80;;;;;;;22.92;56.92;100072.27;1754470;80;20956;-49
2021/06/09 09:20:51;;;;;;;4.87;3.42;;;;;;;22.94;56.16;100072.94;1727300;80;20969;-46
2021/06/09 09:23:25;;;;;;;5.55;2.65;;;;;;;22.95;56.40;100071.90;1667839;82;21367;-44
2021/06/09 09:25:55;;;;;;;4.55;3.17;;;;;;;22.99;57.11;100070.55;1749880;80;21527;-42
2021/06/09 09:28:30;;;;;;;3.50;3.20;;;;;;;23.05;56.97;100075.26;1749104;80;20972;-44
2021/06/09 09:31:08;;;;;;;2.95;2.67;;;;;;;23.11;56.59;100067.76;1742954;80;20972;-45
2021/06/09 09:33:35;;;;;;;3.40;3.10;;;;;;;23.16;56.57;100073.14;1709551;82;21008;-44
2021/06/09 09:36:27;;;;;;;5.30;3.60;;;;;;;23.22;56.47;100067.00;1714372;82;21030;-42
2021/06/09 09:38:55;;;;;;;5.25;2.65;;;;;;;23.27;57.26;100061.86;1712268;82;21443;-44
2021/06/09 09:41:22;;;;;;;3.00;2.70;;;;;;;23.33;56.45;100058.39;1715039;82;20985;-43
2021/06/09 09:44:07;;;;;;;6.08;3.00;;;;;;;23.39;56.08;100058.20;1707292;82;21035;-47
2021/06/09 09:46:40;;;;;;;2.98;2.67;;;;;;;23.43;55.30;100050.83;1716596;82;20973;-49
2021/06/09 09:49:17;;;;;;;2.92;2.52;;;;;;;23.47;54.99;100045.36;1714219;82;20984;-50
2021/06/09 09:51:54;;;;;;;4.37;2.83;;;;;;;23.50;53.39;100040.91;1712461;82;20925;-47
2021/06/09 09:54:34;;;;;;;3.37;2.67;;;;;;;23.54;54.13;100040.87;1715275;82;20972;-46
2021/06/09 09:57:04;;;;;;;4.07;3.20;;;;;;;23.59;53.19;100041.70;1713940;82;20960;-46
2021/06/09 09:59:31;;;;;;;6.47;3.20;;;;;;;23.63;52.86;100042.16;1716881;82;20950;-47
2021/06/09 10:02:01;;;;;;;6.35;2.50;;;;;;;23.66;53.50;100037.20;1710431;82;20933;-46
2021/06/09 10:04:32;;;;;;;4.95;3.35;;;;;;;23.71;53.27;100044.30;1709834;82;21470;-47
2021/06/09 10:07:01;;;;;;;4.72;3.60;;;;;;;23.73;51.11;100035.44;1712119;82;21016;-45
2021/06/09 10:09:36;;;;;;;5.30;2.75;;;;;;;23.73;52.09;100031.88;1714897;82;21008;-51
2021/06/09 10:12:13;;;;;;;3.80;2.80;;;;;;;23.77;52.76;100035.93;1709320;82;21099;-53
2021/06/09 10:14:49;;;;;;;2.72;2.52;;;;;;;23.85;52.65;100037.20;1717053;82;20988;-45
2021/06/09 10:17:28;;;;;;;2.90;2.60;;;;;;;23.91;50.72;100025.58;1713592;82;20952;-46
2021/06/09 10:20:00;;;;;;;4.12;2.98;;;;;;;23.94;50.42;100023.00;1713682;82;21467;-46
2021/06/09 10:22:31;;;;;;;4.42;2.67;;;;;;;23.95;50.97;100017.87;1712933;82;20994;-46
2021/06/09 10:25:09;;;;;;;3.47;2.55;;;;;;;23.97;50.81;100013.92;1713277;83;20968;-46
2021/06/09 10:27:53;;;;;;;3.62;2.15;;;;;;;24.00;48.45;100007.78;1713130;82;21570;-45
2021/06/09 10:30:24;;;;;;;4.37;2.77;;;;;;;23.97;49.52;100008.48;1710455;82;20960;-44
2021/06/09 10:32:57;;;;;;;2.58;2.30;;;;;;;23.98;48.29;100003.34;1711172;82;21442;-43
2021/06/09 10:35:29;;;;;;;2.58;2.05;;;;;;;24.00;48.92;99997.73;1709175;82;20952;-46
2021/06/09 10:40:12;;;;;;;2.20;1.77;;;;;;;24.15;47.99;99989.55;1794524;78;24431;-45
2021/06/09 10:42:41;;;;;;;;;;;;;;;24.17;47.91;99988.85;1776223;79;20992;-41
2021/06/09 10:45:11;;;;;;;2.40;2.20;;;;;;;24.23;47.76;99990.80;1775795;80;20131;-42
2021/06/09 10:47:38;;;;;;;2.75;2.33;;;;;;;24.28;48.04;99986.98;1773176;80;20963;-41
2021/06/09 10:50:08;;;;;;;2.58;2.08;;;;;;;24.34;47.17;99989.45;1771166;79;21325;-44
2021/06/09 10:52:35;;;;;;;5.75;2.47;;;;;;;24.40;47.23;99992.80;1776890;79;21002;-51
2021/06/09 10:55:06;;;;;;;2.30;1.50;;;;;;;24.46;46.20;99988.48;1772382;79;21305;-53
2021/06/09 10:57:33;;;;;;;1.87;1.62;;;;;;;24.53;46.50;99988.05;1774300;79;20951;-46
2021/06/09 11:00:00;;;;;;;3.30;1.77;;;;;;;24.58;44.17;99983.70;1769991;80;20956;-53
2021/06/09 11:02:26;;;;;;;2.60;1.90;;;;;;;24.63;43.43;99983.66;1770143;79;21398;-56
2021/06/09 11:04:59;;;;;;;2.42;1.70;;;;;;;24.62;40.90;99982.82;1773267;79;20924;-56
2021/06/09 11:07:40;;;;;;;241.53;219.93;;;;;;;24.61;41.22;99987.92;1777284;79;20961;-50
2021/06/09 11:10:12;;;;;;;46.63;42.70;;;;;;;24.61;42.74;99984.67;1772915;79;21923;-59
2021/06/09 11:12:43;;;;;;;8.48;7.67;;;;;;;24.63;41.91;99972.75;1775469;79;21017;-50
2021/06/09 11:15:23;;;;;;;3.92;3.37;;;;;;;24.65;42.35;99971.52;1777966;79;21543;-51
2021/06/09 11:17:56;;;;;;;7.40;3.25;;;;;;;24.68;42.48;99968.41;1779788;79;20972;-55
2021/06/09 11:20:34;;;;;;;3.52;2.30;;;;;;;24.72;42.60;99964.27;1781578;78;20952;-48
2021/06/09 12:48:06;;;;;;;7.85;7.08;;;;;;;23.23;51.04;99934.08;1809647;77;23314;-41
2021/06/09 12:50:40;;;;;;;4.22;3.00;;;;;;;23.27;50.97;99935.41;1796177;78;20958;-52
2021/06/09 12:53:16;;;;;;;4.87;4.40;;;;;;;23.29;50.81;99925.20;1811673;77;21031;-51
2021/06/09 12:55:46;;;;;;;5.67;5.15;;;;;;;23.33;51.31;99921.05;1815065;77;21376;-56
2021/06/09 12:58:14;;;;;;;3.87;2.60;;;;;;;23.33;52.33;99923.28;1807837;78;20944;-51
2021/06/09 13:00:45;;;;;;;4.37;2.85;;;;;;;23.35;52.75;99919.00;1805578;78;21014;-49
2021/06/09 13:03:17;;;;;;;3.72;2.15;;;;;;;23.37;52.92;99916.94;1797816;78;21030;-54
2021/06/09 13:05:55;;;;;;;3.67;2.20;;;;;;;23.39;52.73;99912.17;1822094;77;20964;-54
2021/06/09 13:08:29;;;;;;;2.30;2.10;;;;;;;23.41;52.25;99917.41;1784342;79;21006;-50
2021/06/09 13:11:20;;;;;;;5.42;2.80;;;;;;;23.44;51.91;99914.33;1810597;77;21034;-46
2021/06/09 13:13:50;;;;;;;3.08;2.25;;;;;;;23.48;52.08;99923.78;1777672;79;21004;-52